• Join FlightAware (Why Join?)
  • Login
  • US Flag 
01:10PM EDT


 

Airport Tracker/Info


-or-


 

Live Flight TrackerFlight Track Log ✈ JTA556 ✈ 09-Jul-2013 ✈ ROMY / MMY - ROAH / OKA

Flight Track Log - Related Links

Times and Time Zones

All times are in EDT time to prevent confusion due to time zone crossing. See the JTA556 flight status page for this flight to view local times or setup timezone preferences in your user account.

Time Position Orientation Groundspeed Altitude Reporting Facility
EDT Latitude Longitude Course Direction KTS MPH feet Rate Location/Type
09:41PM 25.1247 125.8532 56° Northeast  Level Estimated
09:42PM 25.1815 125.9466 56° Northeast  Level Estimated
09:43PM 25.2382 126.0400 56° Northeast  Level Estimated
09:44PM 25.2949 126.1335 56° Northeast  Level Estimated
09:45PM 25.3515 126.2271 56° Northeast  Level Estimated
09:46PM 25.4080 126.3207 56° Northeast  Level Estimated
09:47PM 25.4645 126.4145 56° Northeast  Level Estimated
09:48PM 25.5209 126.5083 56° Northeast  Level Estimated
09:49PM 25.5773 126.6023 56° Northeast  Level Estimated
09:50PM 25.6336 126.6963 56° Northeast  Level Estimated
09:51PM 25.6898 126.7904 56° Northeast  Level Estimated
09:52PM 25.7460 126.8846 56° Northeast  Level Estimated
09:53PM 25.8021 126.9789 57° Northeast  Level Estimated
09:54PM 25.8582 127.0733 57° Northeast  Level Estimated
09:55PM 25.9142 127.1678 57° Northeast  Level Estimated
09:56PM 25.9701 127.2623 57° Northeast  Level Estimated
09:57PM 26.0260 127.3570 57° Northeast  Level Estimated
09:58PM 26.0818 127.4517 57° Northeast  Level Estimated
09:59PM 26.1375 127.5465 57° Northeast  Level Estimated
10:00PM 26.1932 127.6415 57° Northeast  Level Estimated
10:01PM 26.1958 127.6459 57° Northeast  Level Estimated
10:02PM 26.1958 127.6459 347° North  Level Estimated
10:03PM 26.1958 127.6459 347° North  Level Estimated
10:04PM 26.1958 127.6459 347° North  Level Estimated
10:05PM 26.1958 127.6459 347° North  Level Estimated
10:06PM 26.1958 127.6459 347° North  Level Estimated
10:07PM 26.1958 127.6459 347° North  Level Estimated